Wetterdaten: Montag, 06.10.2014
Datum Zeit Temperatur Luftfeuchte Luftdruck Regen Wind Richtung Richtung Taupunkt Windchill Windben
06.10.2014 00:00 9,6 C 92 % 1017,2 hPa 0,0 l/m 0,0 km/h (0 Bft) S-SO 157 8,4 C 22,8 C 0,0 km/h (0 Bft)
06.10.2014 00:10 9,7 C 92 % 1017,1 hPa 0,0 l/m 0,0 km/h (0 Bft) S-SO 157 8,5 C 22,8 C 0,0 km/h (0 Bft)
06.10.2014 00:20 9,6 C 92 % 1017,1 hPa 0,0 l/m 0,0 km/h (0 Bft) S-SO 157 8,4 C 22,8 C 0,0 km/h (0 Bft)
06.10.2014 00:30 9,6 C 92 % 1017,1 hPa 0,0 l/m 0,0 km/h (0 Bft) S-SO 157 8,4 C 22,8 C 0,0 km/h (0 Bft)
06.10.2014 00:40 9,6 C 92 % 1017,1 hPa 0,0 l/m 0,0 km/h (0 Bft) S-SO 157 8,4 C 22,8 C 0,0 km/h (0 Bft)
06.10.2014 00:50 9,6 C 92 % 1017,0 hPa 0,0 l/m 0,0 km/h (0 Bft) S-SO 157 8,4 C 22,8 C 0,0 km/h (0 Bft)
06.10.2014 01:00 9,7 C 92 % 1017,0 hPa 0,0 l/m 0,0 km/h (0 Bft) S-SO 157 8,5 C 22,8 C 0,0 km/h (0 Bft)
06.10.2014 01:10 9,6 C 92 % 1016,9 hPa 0,0 l/m 0,0 km/h (0 Bft) S-SO 157 8,4 C 22,8 C 0,0 km/h (0 Bft)
06.10.2014 01:18 9,7 C 92 % 1016,9 hPa 0,0 l/m 0,0 km/h (0 Bft) S-SO 157 8,5 C 22,8 C 0,0 km/h (0 Bft)
06.10.2014 01:20 9,6 C 92 % 1016,8 hPa 0,0 l/m 0,0 km/h (0 Bft) S-SO 157 8,4 C 22,8 C 0,0 km/h (0 Bft)
06.10.2014 01:30 9,6 C 92 % 1016,8 hPa 0,0 l/m 0,0 km/h (0 Bft) S-SO 157 8,4 C 22,8 C 0,0 km/h (0 Bft)
06.10.2014 01:40 9,6 C 92 % 1016,9 hPa 0,0 l/m 0,0 km/h (0 Bft) S-SO 157 8,4 C 22,8 C 0,0 km/h (0 Bft)
06.10.2014 01:50 9,6 C 92 % 1016,9 hPa 0,0 l/m 0,0 km/h (0 Bft) S-SO 157 8,4 C 22,8 C 0,0 km/h (0 Bft)
06.10.2014 02:00 9,6 C 92 % 1017,1 hPa 0,0 l/m 0,0 km/h (0 Bft) S-SO 157 8,4 C 22,8 C 0,0 km/h (0 Bft)
06.10.2014 02:10 9,7 C 92 % 1017,1 hPa 0,0 l/m 0,0 km/h (0 Bft) S-SO 157 8,5 C 22,8 C 0,0 km/h (0 Bft)
06.10.2014 02:20 9,7 C 92 % 1017,1 hPa 0,0 l/m 0,0 km/h (0 Bft) S-SO 157 8,5 C 22,8 C 0,0 km/h (0 Bft)
06.10.2014 02:30 9,7 C 92 % 1017,1 hPa 0,0 l/m 0,0 km/h (0 Bft) S-SO 157 8,5 C 22,8 C 0,0 km/h (0 Bft)
06.10.2014 02:40 9,8 C 92 % 1017,1 hPa 0,0 l/m 0,0 km/h (0 Bft) S-SO 157 8,6 C 22,8 C 0,0 km/h (0 Bft)
06.10.2014 02:50 9,8 C 92 % 1017,1 hPa 0,0 l/m 0,0 km/h (0 Bft) S-SO 157 8,6 C 22,8 C 0,0 km/h (0 Bft)
06.10.2014 03:00 9,7 C 92 % 1017,1 hPa 0,0 l/m 0,0 km/h (0 Bft) S-SO 157 8,5 C 22,8 C 0,0 km/h (0 Bft)
06.10.2014 03:10 9,7 C 92 % 1017,2 hPa 0,0 l/m 0,0 km/h (0 Bft) S-SO 157 8,5 C 22,8 C 0,0 km/h (0 Bft)
06.10.2014 03:20 9,7 C 92 % 1017,2 hPa 0,0 l/m 0,0 km/h (0 Bft) S-SO 157 8,5 C 22,8 C 0,0 km/h (0 Bft)
06.10.2014 03:30 9,6 C 92 % 1017,2 hPa 0,0 l/m 0,0 km/h (0 Bft) S-SO 157 8,4 C 22,8 C 0,0 km/h (0 Bft)
06.10.2014 03:40 9,3 C 92 % 1017,2 hPa 0,0 l/m 0,0 km/h (0 Bft) S-SO 157 8,1 C 22,8 C 0,0 km/h (0 Bft)
06.10.2014 03:50 9,3 C 92 % 1016,8 hPa 0,0 l/m 0,0 km/h (0 Bft) S-SO 157 8,1 C 22,8 C 0,0 km/h (0 Bft)
06.10.2014 04:00 9,4 C 92 % 1016,8 hPa 0,0 l/m 0,0 km/h (0 Bft) S-SO 157 8,2 C 22,8 C 0,0 km/h (0 Bft)
06.10.2014 04:10 9,3 C 92 % 1016,8 hPa 0,0 l/m 0,0 km/h (0 Bft) S-SO 157 8,1 C 22,8 C 0,0 km/h (0 Bft)
06.10.2014 04:18 9,3 C 92 % 1016,8 hPa 0,0 l/m 0,0 km/h (0 Bft) S-SO 157 8,1 C 22,8 C 0,0 km/h (0 Bft)
06.10.2014 04:20 9,3 C 92 % 1016,9 hPa 0,0 l/m 0,0 km/h (0 Bft) S-SO 157 8,1 C 22,8 C 0,0 km/h (0 Bft)
06.10.2014 04:30 9,4 C 92 % 1016,9 hPa 0,0 l/m 0,0 km/h (0 Bft) S-SO 157 8,2 C 22,8 C 0,0 km/h (0 Bft)
06.10.2014 04:40 9,4 C 92 % 1016,9 hPa 0,0 l/m 0,0 km/h (0 Bft) S-SO 157 8,2 C 22,8 C 0,0 km/h (0 Bft)
06.10.2014 04:50 9,5 C 92 % 1016,9 hPa 0,0 l/m 0,0 km/h (0 Bft) S-SO 157 8,3 C 22,8 C 0,0 km/h (0 Bft)
06.10.2014 05:00 9,5 C 92 % 1016,9 hPa 0,0 l/m 0,0 km/h (0 Bft) S-SO 157 8,3 C 22,8 C 0,0 km/h (0 Bft)
06.10.2014 05:10 9,6 C 92 % 1016,9 hPa 0,0 l/m 0,0 km/h (0 Bft) S-SO 157 8,4 C 22,8 C 0,0 km/h (0 Bft)
06.10.2014 05:20 9,6 C 92 % 1016,9 hPa 0,0 l/m 0,0 km/h (0 Bft) S-SO 157 8,4 C 22,8 C 0,0 km/h (0 Bft)
06.10.2014 05:30 9,7 C 92 % 1016,8 hPa 0,0 l/m 0,0 km/h (0 Bft) S-SO 157 8,5 C 22,8 C 0,0 km/h (0 Bft)
06.10.2014 05:40 9,6 C 92 % 1016,8 hPa 0,0 l/m 0,0 km/h (0 Bft) S-SO 157 8,4 C 22,8 C 0,0 km/h (0 Bft)
06.10.2014 05:50 9,1 C 92 % 1016,7 hPa 0,0 l/m 0,0 km/h (0 Bft) S-SO 157 7,9 C 22,8 C 0,0 km/h (0 Bft)
06.10.2014 06:00 8,7 C 92 % 1016,7 hPa 0,0 l/m 0,0 km/h (0 Bft) S-SO 157 7,5 C 22,8 C 0,0 km/h (0 Bft)
06.10.2014 06:10 8,4 C 92 % 1016,8 hPa 0,0 l/m 0,0 km/h (0 Bft) S-SO 157 7,2 C 22,8 C 0,0 km/h (0 Bft)
06.10.2014 06:20 8,1 C 92 % 1016,8 hPa 0,0 l/m 0,0 km/h (0 Bft) S-SO 157 6,9 C 22,8 C 0,0 km/h (0 Bft)
06.10.2014 06:30 7,6 C 92 % 1016,7 hPa 0,0 l/m 0,0 km/h (0 Bft) S-SO 157 6,4 C 22,8 C 0,0 km/h (0 Bft)
06.10.2014 06:40 7,1 C 92 % 1016,7 hPa 0,0 l/m 0,0 km/h (0 Bft) S-SO 157 5,9 C 22,8 C 0,0 km/h (0 Bft)
06.10.2014 06:50 7,0 C 92 % 1016,6 hPa 0,0 l/m 0,0 km/h (0 Bft) S-SO 157 5,8 C 22,8 C 0,0 km/h (0 Bft)
06.10.2014 07:00 6,8 C 92 % 1016,6 hPa 0,0 l/m 0,0 km/h (0 Bft) S-SO 157 5,6 C 22,8 C 0,0 km/h (0 Bft)
06.10.2014 07:10 6,7 C 92 % 1016,6 hPa 0,0 l/m 0,0 km/h (0 Bft) S-SO 157 5,5 C 22,8 C 0,0 km/h (0 Bft)
06.10.2014 07:20 7,1 C 92 % 1016,6 hPa 0,0 l/m 0,0 km/h (0 Bft) S-SO 157 5,9 C 22,8 C 0,0 km/h (0 Bft)
06.10.2014 07:30 6,8 C 93 % 1016,6 hPa 0,0 l/m 0,0 km/h (0 Bft) S-SO 157 5,7 C 22,8 C 0,0 km/h (0 Bft)
06.10.2014 07:40 6,6 C 92 % 1016,6 hPa 0,0 l/m 0,0 km/h (0 Bft) S-SO 157 5,4 C 22,8 C 0,0 km/h (0 Bft)
06.10.2014 07:50 6,7 C 93 % 1016,6 hPa 0,0 l/m 0,0 km/h (0 Bft) S-SO 157 5,6 C 22,8 C 0,0 km/h (0 Bft)
06.10.2014 08:00 6,7 C 93 % 1016,5 hPa 0,0 l/m 0,0 km/h (0 Bft) S-SO 157 5,6 C 22,8 C 0,0 km/h (0 Bft)
06.10.2014 08:10 7,0 C 92 % 1016,5 hPa 0,0 l/m 0,0 km/h (0 Bft) S-SO 157 5,8 C 22,8 C 0,0 km/h (0 Bft)
06.10.2014 08:20 7,0 C 92 % 1016,5 hPa 0,0 l/m 0,0 km/h (0 Bft) S-SO 157 5,8 C 22,8 C 0,0 km/h (0 Bft)
06.10.2014 08:30 7,4 C 92 % 1016,5 hPa 0,0 l/m 0,0 km/h (0 Bft) S-SO 157 6,2 C 22,8 C 0,0 km/h (0 Bft)
06.10.2014 08:40 7,9 C 93 % 1016,5 hPa 0,0 l/m 0,0 km/h (0 Bft) S-SO 157 6,8 C 22,8 C 0,0 km/h (0 Bft)
06.10.2014 08:50 8,1 C 93 % 1016,5 hPa 0,0 l/m 0,0 km/h (0 Bft) S-SO 157 7,0 C 22,8 C 0,0 km/h (0 Bft)
06.10.2014 09:00 8,4 C 93 % 1016,5 hPa 0,0 l/m 0,0 km/h (0 Bft) S-SO 157 7,3 C 22,8 C 0,0 km/h (0 Bft)
06.10.2014 09:10 8,8 C 93 % 1016,5 hPa 0,0 l/m 0,0 km/h (0 Bft) S-SO 157 7,7 C 22,8 C 0,0 km/h (0 Bft)
06.10.2014 09:20 9,1 C 93 % 1016,5 hPa 0,0 l/m 0,0 km/h (0 Bft) S-SO 157 8,0 C 22,8 C 0,0 km/h (0 Bft)
06.10.2014 09:30 9,6 C 93 % 1016,5 hPa 0,0 l/m 0,0 km/h (0 Bft) S-SO 157 8,5 C 22,8 C 0,0 km/h (0 Bft)
06.10.2014 09:40 9,9 C 93 % 1016,5 hPa 0,0 l/m 0,0 km/h (0 Bft) S-SO 157 8,8 C 22,8 C 0,0 km/h (0 Bft)
06.10.2014 09:50 10,4 C 93 % 1016,6 hPa 0,0 l/m 0,0 km/h (0 Bft) S-SO 157 9,3 C 22,8 C 0,0 km/h (0 Bft)
06.10.2014 10:00 11,4 C 93 % 1016,6 hPa 0,0 l/m 0,0 km/h (0 Bft) S-SO 157 10,3 C 22,8 C 0,0 km/h (0 Bft)
06.10.2014 10:08 13,6 C 90 % 1016,6 hPa 0,0 l/m 0,0 km/h (0 Bft) S-SO 157 12,0 C 22,8 C 0,0 km/h (0 Bft)
06.10.2014 10:20 14,0 C 79 % 1016,7 hPa 0,0 l/m 0,0 km/h (0 Bft) S-SO 157 10,4 C 22,8 C 0,0 km/h (0 Bft)
06.10.2014 10:30 13,7 C 78 % 1016,7 hPa 0,0 l/m 0,0 km/h (0 Bft) S-SO 157 9,9 C 22,8 C 0,0 km/h (0 Bft)
06.10.2014 10:40 13,7 C 78 % 1016,8 hPa 0,0 l/m 0,0 km/h (0 Bft) S-SO 157 9,9 C 22,8 C 0,0 km/h (0 Bft)
06.10.2014 10:50 14,2 C 75 % 1016,8 hPa 0,0 l/m 0,0 km/h (0 Bft) S-SO 157 9,8 C 22,8 C 0,0 km/h (0 Bft)
06.10.2014 11:00 15,7 C 64 % 1016,8 hPa 0,0 l/m 0,0 km/h (0 Bft) S-SO 157 8,9 C 22,8 C 0,0 km/h (0 Bft)
06.10.2014 11:10 16,7 C 61 % 1016,8 hPa 0,0 l/m 0,0 km/h (0 Bft) S-SO 157 9,1 C 22,8 C 0,0 km/h (0 Bft)
06.10.2014 11:20 16,7 C 61 % 1016,8 hPa 0,0 l/m 0,0 km/h (0 Bft) S-SO 157 9,1 C 22,8 C 0,0 km/h (0 Bft)
06.10.2014 11:30 17,6 C 57 % 1016,8 hPa 0,0 l/m 0,0 km/h (0 Bft) S-SO 157 9,0 C 22,8 C 0,0 km/h (0 Bft)
06.10.2014 11:40 17,2 C 56 % 1016,8 hPa 0,0 l/m 0,0 km/h (0 Bft) S-SO 157 8,3 C 22,8 C 0,0 km/h (0 Bft)
06.10.2014 11:50 15,7 C 63 % 1016,7 hPa 0,0 l/m 0,0 km/h (0 Bft) S-SO 157 8,7 C 22,8 C 0,0 km/h (0 Bft)
06.10.2014 12:00 14,7 C 67 % 1016,7 hPa 0,0 l/m 0,0 km/h (0 Bft) S-SO 157 8,6 C 22,8 C 0,0 km/h (0 Bft)
06.10.2014 12:10 17,5 C 59 % 1016,7 hPa 0,0 l/m 0,0 km/h (0 Bft) S-SO 157 9,4 C 22,8 C 0,0 km/h (0 Bft)
06.10.2014 12:20 18,0 C 57 % 1016,7 hPa 0,0 l/m 0,0 km/h (0 Bft) S-SO 157 9,4 C 22,8 C 0,0 km/h (0 Bft)
06.10.2014 12:30 18,3 C 54 % 1016,7 hPa 0,0 l/m 0,0 km/h (0 Bft) S-SO 157 8,8 C 22,8 C 0,0 km/h (0 Bft)
06.10.2014 12:40 19,2 C 56 % 1016,7 hPa 0,0 l/m 0,0 km/h (0 Bft) S-SO 157 10,2 C 22,8 C 0,0 km/h (0 Bft)
06.10.2014 12:50 16,4 C 59 % 1016,6 hPa 0,0 l/m 0,0 km/h (0 Bft) S-SO 157 8,4 C 22,8 C 0,0 km/h (0 Bft)
06.10.2014 13:00 16,0 C 62 % 1016,6 hPa 0,0 l/m 0,0 km/h (0 Bft) S-SO 157 8,7 C 22,8 C 0,0 km/h (0 Bft)
06.10.2014 13:08 17,5 C 63 % 1016,4 hPa 0,0 l/m 0,0 km/h (0 Bft) S-SO 157 10,4 C 22,8 C 0,0 km/h (0 Bft)
06.10.2014 13:20 19,1 C 55 % 1016,1 hPa 0,0 l/m 0,0 km/h (0 Bft) S-SO 157 9,8 C 22,8 C 0,0 km/h (0 Bft)
06.10.2014 13:30 18,9 C 57 % 1016,1 hPa 0,0 l/m 0,0 km/h (0 Bft) S-SO 157 10,2 C 22,8 C 0,0 km/h (0 Bft)
06.10.2014 13:40 17,4 C 58 % 1016,1 hPa 0,0 l/m 0,0 km/h (0 Bft) S-SO 157 9,1 C 22,8 C 0,0 km/h (0 Bft)
06.10.2014 13:50 17,8 C 57 % 1016,1 hPa 0,0 l/m 0,0 km/h (0 Bft) S-SO 157 9,2 C 22,8 C 0,0 km/h (0 Bft)
06.10.2014 14:00 17,6 C 57 % 1015,8 hPa 0,0 l/m 0,0 km/h (0 Bft) S-SO 157 9,0 C 22,8 C 0,0 km/h (0 Bft)
06.10.2014 14:10 17,6 C 57 % 1015,8 hPa 0,0 l/m 0,0 km/h (0 Bft) S-SO 157 9,0 C 22,8 C 0,0 km/h (0 Bft)
06.10.2014 14:20 17,4 C 59 % 1015,8 hPa 0,0 l/m 0,0 km/h (0 Bft) S-SO 157 9,3 C 22,8 C 0,0 km/h (0 Bft)
06.10.2014 14:30 17,7 C 57 % 1015,8 hPa 0,0 l/m 0,0 km/h (0 Bft) S-SO 157 9,1 C 22,8 C 0,0 km/h (0 Bft)
06.10.2014 14:40 17,7 C 57 % 1015,8 hPa 0,0 l/m 0,0 km/h (0 Bft) S-SO 157 9,1 C 22,8 C 0,0 km/h (0 Bft)
06.10.2014 14:50 17,1 C 59 % 1015,5 hPa 0,0 l/m 0,0 km/h (0 Bft) S-SO 157 9,0 C 22,8 C 0,0 km/h (0 Bft)
06.10.2014 15:00 18,0 C 56 % 1015,5 hPa 0,0 l/m 0,0 km/h (0 Bft) S-SO 157 9,1 C 22,8 C 0,0 km/h (0 Bft)
06.10.2014 15:10 18,2 C 56 % 1015,1 hPa 0,0 l/m 0,0 km/h (0 Bft) S-SO 157 9,3 C 22,8 C 0,0 km/h (0 Bft)
06.10.2014 15:20 18,1 C 59 % 1015,1 hPa 0,0 l/m 0,0 km/h (0 Bft) S-SO 157 10,0 C 22,8 C 0,0 km/h (0 Bft)
06.10.2014 15:30 17,4 C 59 % 1014,9 hPa 0,0 l/m 0,0 km/h (0 Bft) S-SO 157 9,3 C 22,8 C 0,0 km/h (0 Bft)
06.10.2014 15:40 17,9 C 58 % 1014,9 hPa 0,0 l/m 0,0 km/h (0 Bft) S-SO 157 9,5 C 22,8 C 0,0 km/h (0 Bft)
06.10.2014 15:50 17,2 C 60 % 1014,7 hPa 0,0 l/m 0,0 km/h (0 Bft) S-SO 157 9,4 C 22,8 C 0,0 km/h (0 Bft)
06.10.2014 16:00 17,5 C 60 % 1014,7 hPa 0,0 l/m 0,0 km/h (0 Bft) S-SO 157 9,6 C 22,8 C 0,0 km/h (0 Bft)
06.10.2014 16:08 18,0 C 59 % 1014,6 hPa 0,0 l/m 0,0 km/h (0 Bft) S-SO 157 9,9 C 22,8 C 0,0 km/h (0 Bft)
06.10.2014 16:20 16,8 C 63 % 1014,2 hPa 0,0 l/m 0,0 km/h (0 Bft) S-SO 157 9,7 C 22,8 C 0,0 km/h (0 Bft)
06.10.2014 16:30 16,7 C 66 % 1014,2 hPa 0,0 l/m 0,0 km/h (0 Bft) S-SO 157 10,3 C 22,8 C 0,0 km/h (0 Bft)
06.10.2014 16:40 16,5 C 69 % 1014,1 hPa 0,0 l/m 0,0 km/h (0 Bft) S-SO 157 10,8 C 22,8 C 0,0 km/h (0 Bft)
06.10.2014 16:50 15,7 C 71 % 1014,1 hPa 0,0 l/m 0,0 km/h (0 Bft) S-SO 157 10,5 C 22,8 C 0,0 km/h (0 Bft)
06.10.2014 17:00 15,6 C 72 % 1013,9 hPa 0,0 l/m 0,0 km/h (0 Bft) S-SO 157 10,6 C 22,8 C 0,0 km/h (0 Bft)
06.10.2014 17:10 15,6 C 72 % 1013,9 hPa 0,0 l/m 0,0 km/h (0 Bft) S-SO 157 10,6 C 22,8 C 0,0 km/h (0 Bft)
06.10.2014 17:20 15,6 C 72 % 1013,9 hPa 0,0 l/m 0,0 km/h (0 Bft) S-SO 157 10,6 C 22,8 C 0,0 km/h (0 Bft)
06.10.2014 17:30 15,4 C 73 % 1014,1 hPa 0,0 l/m 0,0 km/h (0 Bft) S-SO 157 10,6 C 22,8 C 0,0 km/h (0 Bft)
06.10.2014 17:40 15,1 C 75 % 1014,1 hPa 0,0 l/m 0,0 km/h (0 Bft) S-SO 157 10,7 C 22,8 C 0,0 km/h (0 Bft)
06.10.2014 17:50 14,9 C 76 % 1014,1 hPa 0,0 l/m 0,0 km/h (0 Bft) S-SO 157 10,7 C 22,8 C 0,0 km/h (0 Bft)
06.10.2014 18:00 14,6 C 77 % 1014,1 hPa 0,0 l/m 0,0 km/h (0 Bft) S-SO 157 10,6 C 22,8 C 0,0 km/h (0 Bft)
06.10.2014 18:10 14,4 C 78 % 1013,9 hPa 0,0 l/m 0,0 km/h (0 Bft) S-SO 157 10,6 C 22,8 C 0,0 km/h (0 Bft)
06.10.2014 18:20 14,1 C 79 % 1013,9 hPa 0,0 l/m 0,0 km/h (0 Bft) S-SO 157 10,5 C 22,8 C 0,0 km/h (0 Bft)
06.10.2014 18:30 13,8 C 80 % 1013,8 hPa 0,0 l/m 0,0 km/h (0 Bft) S-SO 157 10,4 C 22,8 C 0,0 km/h (0 Bft)
06.10.2014 18:40 13,6 C 81 % 1013,8 hPa 0,0 l/m 0,0 km/h (0 Bft) S-SO 157 10,4 C 22,8 C 0,0 km/h (0 Bft)
06.10.2014 18:50 13,4 C 81 % 1013,7 hPa 0,0 l/m 0,0 km/h (0 Bft) S-SO 157 10,2 C 22,8 C 0,0 km/h (0 Bft)
06.10.2014 19:00 13,3 C 82 % 1013,7 hPa 0,0 l/m 0,0 km/h (0 Bft) S-SO 157 10,3 C 22,8 C 0,0 km/h (0 Bft)
06.10.2014 19:08 13,2 C 82 % 1013,9 hPa 0,0 l/m 0,0 km/h (0 Bft) S-SO 157 10,2 C 22,8 C 0,0 km/h (0 Bft)
06.10.2014 19:10 13,0 C 83 % 1013,9 hPa 0,0 l/m 0,0 km/h (0 Bft) S-SO 157 10,2 C 22,8 C 0,0 km/h (0 Bft)
06.10.2014 19:20 12,9 C 84 % 1014,2 hPa 0,0 l/m 0,0 km/h (0 Bft) S-SO 157 10,3 C 22,8 C 0,0 km/h (0 Bft)
06.10.2014 19:30 12,4 C 85 % 1014,2 hPa 0,0 l/m 0,0 km/h (0 Bft) S-SO 157 9,9 C 22,8 C 0,0 km/h (0 Bft)
06.10.2014 19:40 11,5 C 85 % 1014,2 hPa 0,0 l/m 0,0 km/h (0 Bft) S-SO 157 9,1 C 22,8 C 0,0 km/h (0 Bft)
06.10.2014 19:50 11,1 C 86 % 1014,2 hPa 0,0 l/m 0,0 km/h (0 Bft) S-SO 157 8,8 C 22,8 C 0,0 km/h (0 Bft)
06.10.2014 20:00 10,6 C 86 % 1014,3 hPa 0,0 l/m 0,0 km/h (0 Bft) S-SO 157 8,4 C 22,8 C 0,0 km/h (0 Bft)
06.10.2014 20:10 10,6 C 86 % 1014,3 hPa 0,0 l/m 0,0 km/h (0 Bft) S-SO 157 8,4 C 22,8 C 0,0 km/h (0 Bft)
06.10.2014 20:20 10,3 C 87 % 1014,3 hPa 0,0 l/m 0,0 km/h (0 Bft) S-SO 157 8,2 C 22,8 C 0,0 km/h (0 Bft)
06.10.2014 20:30 10,0 C 88 % 1014,4 hPa 0,0 l/m 0,0 km/h (0 Bft) S-SO 157 8,1 C 22,8 C 0,0 km/h (0 Bft)
06.10.2014 20:40 10,0 C 89 % 1014,4 hPa 0,0 l/m 0,0 km/h (0 Bft) S-SO 157 8,3 C 22,8 C 0,0 km/h (0 Bft)
06.10.2014 20:50 9,7 C 89 % 1014,3 hPa 0,0 l/m 0,0 km/h (0 Bft) S-SO 157 8,0 C 22,8 C 0,0 km/h (0 Bft)
06.10.2014 21:00 9,1 C 89 % 1014,3 hPa 0,0 l/m 0,0 km/h (0 Bft) S-SO 157 7,4 C 22,8 C 0,0 km/h (0 Bft)
06.10.2014 21:10 9,0 C 89 % 1014,4 hPa 0,0 l/m 0,0 km/h (0 Bft) S-SO 157 7,3 C 22,8 C 0,0 km/h (0 Bft)
06.10.2014 21:20 9,9 C 90 % 1014,4 hPa 0,0 l/m 0,0 km/h (0 Bft) S-SO 157 8,3 C 22,8 C 0,0 km/h (0 Bft)
06.10.2014 21:30 10,0 C 90 % 1014,6 hPa 0,0 l/m 0,0 km/h (0 Bft) S-SO 157 8,4 C 22,8 C 0,0 km/h (0 Bft)
06.10.2014 21:40 10,0 C 91 % 1014,6 hPa 0,0 l/m 0,0 km/h (0 Bft) S-SO 157 8,6 C 22,8 C 0,0 km/h (0 Bft)
06.10.2014 21:50 10,0 C 91 % 1014,6 hPa 0,0 l/m 0,0 km/h (0 Bft) S-SO 157 8,6 C 22,8 C 0,0 km/h (0 Bft)
06.10.2014 22:00 10,1 C 91 % 1014,6 hPa 0,0 l/m 0,0 km/h (0 Bft) S-SO 157 8,7 C 22,8 C 0,0 km/h (0 Bft)
06.10.2014 22:08 10,0 C 91 % 1014,3 hPa 0,0 l/m 0,0 km/h (0 Bft) S-SO 157 8,6 C 22,8 C 0,0 km/h (0 Bft)
06.10.2014 22:20 9,7 C 91 % 1014,4 hPa 0,0 l/m 0,0 km/h (0 Bft) S-SO 157 8,3 C 22,8 C 0,0 km/h (0 Bft)
06.10.2014 22:30 9,5 C 91 % 1014,4 hPa 0,0 l/m 0,0 km/h (0 Bft) S-SO 157 8,1 C 22,8 C 0,0 km/h (0 Bft)
06.10.2014 22:40 9,1 C 91 % 1014,3 hPa 0,0 l/m 0,0 km/h (0 Bft) S-SO 157 7,7 C 22,8 C 0,0 km/h (0 Bft)
06.10.2014 22:50 9,0 C 91 % 1014,3 hPa 0,0 l/m 0,0 km/h (0 Bft) S-SO 157 7,6 C 22,8 C 0,0 km/h (0 Bft)
06.10.2014 23:00 9,1 C 91 % 1014,2 hPa 0,0 l/m 0,0 km/h (0 Bft) S-SO 157 7,7 C 22,8 C 0,0 km/h (0 Bft)
06.10.2014 23:10 8,9 C 91 % 1014,2 hPa 0,0 l/m 0,0 km/h (0 Bft) S-SO 157 7,5 C 22,8 C 0,0 km/h (0 Bft)
06.10.2014 23:20 8,9 C 91 % 1014,2 hPa 0,0 l/m 0,0 km/h (0 Bft) S-SO 157 7,5 C 22,8 C 0,0 km/h (0 Bft)
06.10.2014 23:30 8,7 C 91 % 1014,0 hPa 0,0 l/m 0,0 km/h (0 Bft) S-SO 157 7,3 C 22,8 C 0,0 km/h (0 Bft)
06.10.2014 23:40 8,3 C 91 % 1014,0 hPa 0,0 l/m 0,0 km/h (0 Bft) S-SO 157 6,9 C 22,8 C 0,0 km/h (0 Bft)
06.10.2014 23:50 7,6 C 91 % 1014,1 hPa 0,0 l/m 0,0 km/h (0 Bft) S-SO 157 6,2 C 22,8 C 0,0 km/h (0 Bft)
_ Min-Zeit 07:40 12:30 19:00 - 23:50 - - 07:40 23:50 23:50
Minimum _ 6,6 C 54 % 1013,7 hPa - 0,0 km/h (0 Bft) - - 5,4 C 22,8 C 0,0 km/h (0 Bft)
_ Max-Zeit 12:40 10:00 03:40 23:50 23:50 - - 10:08 23:50 23:50
Maximum _ 19,2 C 93 % 1017,2 hPa 0,0 l/m 0,0 km/h
S-SO (0 Bft)
- - 12,0 C 22,8 C 0,0 km/h
S-SO (0 Bft)
Durchschnitt _ 11,9 C 82 % 1015,8 hPa #0,0 l/m 0,0 km/h (0 Bft) - - - 8,6 C 22,8 C 0,0 km/h (0 Bft)